• Join FlightAware (Why Join?)
  • Login
  • US Flag 
12:53PM EDT


 

Airport Tracker/Info


-or-


 

Live Flight TrackerFlight Track Log ✈ GJS3706 ✈ 16-May-2013 ✈ KPWM - KORD

Flight Track Log - Related Links

Times and Time Zones

All times are in EDT time to prevent confusion due to time zone crossing. See the GJS3706 flight status page for this flight to view local times or setup timezone preferences in your user account.

Time Position Orientation Groundspeed Altitude Reporting Facility
EDT Latitude Longitude Course Direction KTS MPH feet Rate Location/Type
06:58AM 43.6539 -70.4200 243° Southwest 195 224 3,400  Level Boston Center
06:59AM 43.6633 -70.4942 280° West 215 247 5,700 2,520 Climbing Boston Center
07:00AM 43.6817 -70.5911 285° West 234 269 8,500 2,520 Climbing Boston Center
07:01AM 43.6933 -70.6714 281° West 241 277 10,800 2,100 Climbing Boston Center
07:02AM 43.6744 -70.7894 258° West 261 300 12,700 1,860 Climbing Boston Center
07:03AM 43.7192 -70.7675 264° West  Level FlightAware Approximate
07:03AM 43.6569 -70.8906 257° West 300 345 14,600  Level Boston Center
07:04AM 43.6899 -70.8882 243° Southwest  Level FlightAware Approximate
07:04AM 43.6336 -71.0231 256° West 317 365 16,800  Level Boston Center
07:05AM 43.6183 -71.1325 259° West 323 372 18,900 2,100 Climbing Boston Center
07:06AM 43.6072 -71.2617 263° West 323 372 21,000 1,920 Climbing Boston Center
07:07AM 43.6064 -71.3878 270° West 323 372 22,800 1,740 Climbing Boston Center
07:08AM 43.6033 -71.5111 268° West 323 372 24,500 1,620 Climbing Boston Center
07:09AM 43.6042 -71.6258 271° West 332 382 26,100 1,560 Climbing Boston Center
07:10AM 43.6008 -71.7492 268° West 332 382 27,700 1,260 Climbing Boston Center
07:11AM 43.5994 -71.8725 269° West 326 375 28,700 960 Climbing Boston Center
07:12AM 43.5958 -71.9986 268° West 331 381 29,700 960 Climbing Boston Center
07:13AM 43.5942 -72.1275 269° West 331 381 30,700 960 Climbing Boston Center
07:14AM 43.5903 -72.2567 268° West 331 381 31,700 960 Climbing Boston Center
07:15AM 43.5883 -72.3886 269° West 337 388 32,700 960 Climbing Boston Center
07:16AM 43.5842 -72.5175 267° West 337 388 33,700 1,020 Climbing Boston Center
07:17AM 43.5797 -72.6464 267° West 337 388 34,800 960 Climbing Boston Center
07:18AM 43.5775 -72.7753 269° West 337 388 35,700 540 Climbing Boston Center
07:19AM 43.5750 -72.9014 268° West 337 388 36,000 120 Climbing Boston Center
07:20AM 43.5658 -73.0447 265° West 342 394 36,000  Level Boston Center
07:21AM 43.5608 -73.2022 268° West 347 399 36,000  Level Boston Center
07:23AM 43.5578 -73.3397 268° West 352 405 36,000  Level Boston Center
07:24AM 43.5519 -73.5058 267° West 358 412 36,000  Level Boston Center
07:25AM 43.5464 -73.6461 267° West 364 419 36,000  Level Boston Center
07:26AM 43.5408 -73.7864 267° West 364 419 36,000  Level Boston Center
07:27AM 43.5369 -73.9294 268° West 364 419 36,000  Level Boston Center
07:28AM 43.5289 -74.0694 266° West 364 419 36,000  Level Boston Center
07:29AM 43.5269 -74.1956 269° West 364 419 36,000  Level Boston Center
07:30AM 43.5206 -74.3383 267° West 364 419 36,000  Level Boston Center
07:31AM 43.5139 -74.4814 266° West 364 419 36,000  Level Boston Center
07:32AM 43.5092 -74.6214 267° West 364 419 36,000  Level Boston Center
07:33AM 43.5042 -74.7617 267° West 364 419 36,000  Level Boston Center
07:34AM 43.4972 -74.9044 266° West 364 419 36,000  Level Boston Center
07:35AM 43.4942 -75.0447 268° West 364 419 36,000  Level Boston Center
07:36AM 43.4883 -75.2019 267° West 364 419 36,000  Level Boston Center
07:37AM 43.4806 -75.3444 266° West 370 426 36,000  Level Boston Center
07:38AM 43.4706 -75.4842 264° West 375 432 36,000  Level Boston Center
07:39AM 43.4647 -75.6269 267° West 375 432 36,000  Level Boston Center
07:40AM 43.4564 -75.7725 266° West 375 432 36,000  Level Boston Center
07:41AM 43.4481 -75.9122 265° West 375 432 36,000  Level Boston Center
07:42AM 43.4417 -76.0550 267° West 375 432 36,000  Level Boston Center
07:44AM 43.4236 -76.3697 266° West 379 436 36,000  Level Cleveland Center
07:45AM 43.4142 -76.5103 265° West 374 430 36,000  Level Cleveland Center
07:46AM 43.4044 -76.6539 265° West 374 430 36,000  Level Cleveland Center
07:47AM 43.3967 -76.7975 266° West 374 430 36,000  Level Cleveland Center
07:48AM 43.3867 -76.9408 265° West 374 430 36,000  Level Cleveland Center
07:49AM 43.3781 -77.0672 265° West 374 430 36,000  Level Cleveland Center
07:50AM 43.3697 -77.2103 265° West 374 430 36,000  Level Cleveland Center
07:51AM 43.3594 -77.3539 264° West 374 430 36,000  Level Cleveland Center
07:52AM 43.3486 -77.5000 264° West 379 436 36,000  Level Cleveland Center
07:53AM 43.3400 -77.6431 265° West 379 436 36,000  Level Cleveland Center
07:54AM 43.3289 -77.7892 264° West 384 442 36,000  Level Cleveland Center
07:55AM 43.3178 -77.9325 264° West 384 442 36,000  Level Cleveland Center
07:56AM 43.3064 -78.0783 264° West 389 448 36,000  Level Cleveland Center
07:57AM 43.2969 -78.2242 265° West 389 448 36,000  Level Cleveland Center
07:58AM 43.2853 -78.3703 264° West 389 448 36,000  Level Cleveland Center
07:59AM 43.2753 -78.5131 265° West 389 448 36,000  Level Cleveland Center
08:00AM 43.2633 -78.6617 264° West 389 448 36,000 180 Level Cleveland Center
08:01AM 43.2511 -78.8075 263° West 389 448 36,400 660 Climbing Cleveland Center
08:02AM 43.2406 -78.9503 264° West 389 448 37,400 720 Climbing Cleveland Center
08:03AM 43.2167 -79.1000 258° West 360 414 38,000 240 Climbing Toronto Center
08:04AM 43.2000 -79.2500 261° West 370 426 38,000  Level Toronto Center
08:05AM 43.1833 -79.3833 260° West 380 437 38,000  Level Toronto Center
08:06AM 43.1833 -79.5167 270° West 390 449 38,000  Level Toronto Center
08:07AM 43.1667 -79.6833 262° West 390 449 38,000  Level Toronto Center
08:08AM 43.1500 -79.8167 260° West 390 449 38,000  Level Toronto Center
08:09AM 43.1333 -79.9833 262° West 390 449 38,000  Level Toronto Center
08:10AM 43.1333 -80.1167 270° West 390 449 38,000  Level Toronto Center
08:11AM 43.1167 -80.2667 261° West 390 449 38,000  Level Toronto Center
08:12AM 43.1000 -80.4167 261° West 380 437 38,000  Level Toronto Center
08:13AM 43.0833 -80.5667 261° West 380 437 38,000  Level Toronto Center
08:14AM 43.0667 -80.7000 260° West 380 437 38,000  Level Toronto Center
08:15AM 43.0500 -80.8500 261° West 380 437 38,000  Level Toronto Center
08:16AM 43.0333 -80.9833 260° West 380 437 38,000  Level Toronto Center
08:17AM 43.0167 -81.1333 261° West 380 437 38,000  Level Toronto Center
08:18AM 43.0167 -81.2667 270° West 380 437 38,000  Level Toronto Center
08:19AM 43.0167 -81.4333 270° West 380 437 38,000  Level Toronto Center
08:20AM 43.0167 -81.5667 270° West 380 437 38,000  Level Toronto Center
08:21AM 43.0167 -81.7333 270° West 390 449 38,000  Level Toronto Center
08:22AM 43.0167 -81.8667 270° West 390 449 38,000  Level Toronto Center
08:23AM 43.0000 -82.0333 262° West 390 449 38,000  Level Toronto Center
08:24AM 43.0000 -82.1667 270° West 390 449 38,000  Level Toronto Center
08:25AM 43.0000 -82.3167 270° West 390 449 38,000  Level Toronto Center
08:26AM 43.0000 -82.4667 270° West 390 449 38,000 -300 Level Toronto Center
08:27AM 43.0000 -82.6167 270° West 390 449 37,500 -720 Descending Toronto Center
08:28AM 42.9833 -82.7500 260° West 390 449 36,600 -1,020 Descending Toronto Center
08:29AM 42.9833 -82.9167 270° West 390 449 35,500 -1,020 Descending Toronto Center
08:30AM 42.9833 -83.0500 270° West 390 449 34,600 -1,020 Descending Toronto Center
08:31AM 42.9667 -83.2167 262° West 390 449 33,500 -1,080 Descending Toronto Center
08:32AM 42.9667 -83.3500 270° West 400 460 32,500 -780 Descending Toronto Center
08:33AM 42.9667 -83.5000 270° West 400 460 32,000 -300 Descending Toronto Center
08:34AM 42.9667 -83.6667 270° West 400 460 32,000  Level Toronto Center
08:35AM 42.9333 -83.8000 251° West 410 472 32,000  Level Toronto Center
08:36AM 42.9333 -83.9667 270° West 410 472 32,000  Level Toronto Center
08:37AM 42.9333 -84.1167 270° West 410 472 32,000  Level Toronto Center
08:38AM 42.9203 -84.2131 260° West 410 472 32,000  Level Chicago Center
08:38AM 42.9108 -84.3025 262° West 407 468 32,000  Level Cleveland Center
08:39AM 42.8950 -84.4633 262° West 407 468 32,000  Level Cleveland Center
08:40AM 42.8897 -84.5189 263° West 407 468 32,000  Level Chicago Center
08:41AM 42.8717 -84.6994 262° West 403 464 32,000  Level Chicago Center
08:42AM 42.8553 -84.8497 262° West 401 461 32,000  Level Chicago Center
08:43AM 42.8403 -84.9992 262° West 400 460 32,000  Level Chicago Center
08:44AM 42.8239 -85.1492 262° West 400 460 32,000 -60 Level Chicago Center
08:45AM 42.8081 -85.2981 262° West 398 458 31,900 -960 Descending Chicago Center
08:46AM 42.7906 -85.4508 261° West 407 468 30,100 -1,800 Descending Chicago Center
08:47AM 42.7672 -85.6075 259° West 418 481 28,200 -2,100 Descending Chicago Center
08:48AM 42.7344 -85.7867 256° West 407 468 25,900 -2,040 Descending Chicago Center
08:49AM 42.7075 -85.9342 256° West 401 461 24,000 -1,800 Descending Chicago Center
08:50AM 42.6811 -86.0792 256° West 394 453 22,200 -1,800 Descending Chicago Center
08:51AM 42.6550 -86.2219 256° West 389 448 20,400 -1,440 Descending Chicago Center
08:52AM 42.6278 -86.3578 255° West 371 427 19,300 -1,320 Descending Chicago Center
08:53AM 42.6022 -86.4967 256° West 376 433 17,700 -1,500 Descending Chicago Center
08:54AM 42.5783 -86.6308 256° West 368 423 16,200 -1,740 Descending Chicago Center
08:55AM 42.5472 -86.7831 255° West 350 403 14,200 -1,800 Descending Chicago Center
08:56AM 42.5144 -86.8997 249° West 334 384 12,500 -1,740 Descending Chicago Center
08:57AM 42.4825 -87.0142 249° West 328 377 10,700 -1,500 Descending Chicago Center
08:58AM 42.4108 -87.0883 217° Southwest 325 374 9,500 -840 Descending Chicago Center
08:59AM 42.3436 -87.1453 212° Southwest 289 333 9,000 -660 Descending Chicago Center
09:00AM 42.2706 -87.2044 211° Southwest 276 318 8,200 -1,020 Descending Chicago Center
09:01AM 42.2061 -87.2528 209° Southwest 266 306 7,000 -600 Descending Chicago Center
09:02AM 42.1261 -87.2578 183° South 287 330 7,000  Level Chicago Center
09:04AM 42.0472 -87.2650 184° South 285 328 7,000  Level Chicago Center
09:05AM 41.9875 -87.2989 203° Southwest 248 285 7,000  Level Chicago Center
09:06AM 41.9833 -87.4000 267° West 238 274 7,000 -60 Level Chicago TRACON
09:07AM 41.9833 -87.4833 270° West 238 274 6,900 -780 Descending Chicago TRACON
09:08AM 41.9833 -87.5833 270° West 233 268 5,500 -1,500 Descending Chicago TRACON
09:08AM 41.9833 -87.6500 270° West 237 273 4,100 -1,380 Descending Chicago TRACON
09:09AM 41.9833 -87.7333 270° West 197 227 2,900 -1,080 Descending Chicago TRACON
09:10AM 41.9833 -87.8000 270° West 168 193 2,000 -900 Descending Chicago TRACON
09:11AM 41.9833 -87.8500 270° West 143 165 1,200 -840 Descending Chicago TRACON
09:14AM 41.9667 -87.9000 265° West  Level FlightAware Approximate